createdAt,value
2023-03-06T00:00:31.834Z,3.16
2023-03-06T00:02:58.710Z,3.15
2023-03-06T00:05:25.827Z,3.21
2023-03-06T00:07:52.299Z,3.21
2023-03-06T00:10:22.527Z,3.20
2023-03-06T00:12:51.459Z,3.21
2023-03-06T00:15:17.959Z,3.16
2023-03-06T00:17:44.421Z,3.18
2023-03-06T00:20:11.870Z,3.15
2023-03-06T00:22:38.805Z,3.13
2023-03-06T00:25:06.398Z,3.13
2023-03-06T00:27:33.094Z,3.09
2023-03-06T00:30:00.926Z,3.14
2023-03-06T00:32:28.220Z,3.08
2023-03-06T00:34:56.188Z,3.05
2023-03-06T00:37:24.415Z,3.02
2023-03-06T00:39:51.402Z,3.04
2023-03-06T00:42:19.196Z,3.05
2023-03-06T00:44:45.937Z,3.06
2023-03-06T00:47:12.777Z,3.09
2023-03-06T00:49:39.329Z,3.05
2023-03-06T00:52:05.786Z,3.07
2023-03-06T00:54:32.141Z,3.02
2023-03-06T00:56:58.439Z,3.10
2023-03-06T00:59:24.787Z,3.10
2023-03-06T01:01:51.091Z,3.03
2023-03-06T01:04:17.620Z,3.05
2023-03-06T01:07:02.410Z,3.02
2023-03-06T01:09:29.213Z,2.99
2023-03-06T01:11:56.148Z,3.04
2023-03-06T01:14:22.487Z,3.05
2023-03-06T01:16:48.790Z,3.01
2023-03-06T01:19:15.606Z,2.98
2023-03-06T01:21:41.904Z,2.95
2023-03-06T01:24:08.413Z,2.95
2023-03-06T01:26:34.805Z,2.99
2023-03-06T01:29:02.048Z,2.98
2023-03-06T01:31:28.502Z,2.94
2023-03-06T01:33:55.159Z,2.93
2023-03-06T01:36:21.541Z,2.95
2023-03-06T01:38:47.871Z,2.95
2023-03-06T01:41:15.800Z,2.92
2023-03-06T01:43:45.316Z,2.95
2023-03-06T01:46:26.641Z,2.87
2023-03-06T01:49:16.506Z,2.92
2023-03-06T01:51:53.470Z,2.91
2023-03-06T01:54:26.707Z,2.86
2023-03-06T01:56:59.193Z,2.82
2023-03-06T01:59:26.897Z,2.85
2023-03-06T02:01:55.209Z,2.82
2023-03-06T02:04:21.792Z,2.76
2023-03-06T02:06:48.335Z,2.79
2023-03-06T02:09:15.140Z,2.85
2023-03-06T02:11:46.086Z,2.82
2023-03-06T02:14:16.062Z,2.87
2023-03-06T02:16:43.555Z,2.87
2023-03-06T02:19:30.034Z,2.80
2023-03-06T02:21:56.490Z,2.81
2023-03-06T02:24:36.888Z,2.80
2023-03-06T02:27:05.305Z,2.82
2023-03-06T02:29:31.755Z,2.78
2023-03-06T02:31:58.090Z,2.78
2023-03-06T02:34:24.356Z,2.80
2023-03-06T02:36:58.782Z,2.77
2023-03-06T02:39:28.032Z,2.74
2023-03-06T02:41:54.755Z,2.75
2023-03-06T02:44:21.801Z,2.80
2023-03-06T02:46:48.081Z,2.78
2023-03-06T02:49:14.382Z,2.74
2023-03-06T02:51:40.754Z,2.78
2023-03-06T02:54:07.094Z,2.75
2023-03-06T02:56:33.480Z,2.78
2023-03-06T02:58:59.837Z,2.81
2023-03-06T03:01:26.169Z,2.77
2023-03-06T03:03:52.595Z,2.78
2023-03-06T03:06:19.053Z,2.76
2023-03-06T03:08:45.493Z,2.73
2023-03-06T03:11:12.386Z,2.72
2023-03-06T03:13:38.926Z,2.74
2023-03-06T03:16:10.873Z,2.70
2023-03-06T03:18:37.249Z,2.72
2023-03-06T03:21:07.728Z,2.65
2023-03-06T03:23:34.038Z,2.63
2023-03-06T03:26:11.791Z,2.64
2023-03-06T03:28:38.135Z,2.61
2023-03-06T03:31:06.604Z,2.63
2023-03-06T03:33:33.466Z,2.69
2023-03-06T03:36:01.901Z,2.71
2023-03-06T03:38:29.135Z,2.67
2023-03-06T03:40:55.568Z,2.64
2023-03-06T03:43:21.912Z,2.69
2023-03-06T03:45:48.344Z,2.65
2023-03-06T03:48:14.751Z,2.61
2023-03-06T03:50:41.966Z,2.65
2023-03-06T03:53:08.339Z,2.67
2023-03-06T03:55:34.671Z,2.71
2023-03-06T03:58:00.953Z,2.66
2023-03-06T04:00:27.363Z,2.61
2023-03-06T04:02:53.659Z,2.64
2023-03-06T04:05:20.094Z,2.64
2023-03-06T04:07:46.471Z,2.68
2023-03-06T04:10:13.368Z,2.68
2023-03-06T04:12:39.837Z,2.66
2023-03-06T04:15:07.533Z,2.62
2023-03-06T04:17:34.906Z,2.65
2023-03-06T04:20:02.172Z,2.66
2023-03-06T04:22:28.579Z,2.67
2023-03-06T04:24:54.903Z,2.66
2023-03-06T04:27:21.298Z,2.66
2023-03-06T04:29:47.676Z,2.66
2023-03-06T04:32:14.241Z,2.67
2023-03-06T04:34:41.181Z,2.70
2023-03-06T04:37:11.986Z,2.71
2023-03-06T04:39:51.797Z,2.70
2023-03-06T04:42:18.617Z,2.60
2023-03-06T04:44:45.532Z,2.65
2023-03-06T04:47:12.562Z,2.63
2023-03-06T04:49:38.894Z,2.66
2023-03-06T04:52:05.542Z,2.78
2023-03-06T04:54:31.998Z,2.80
2023-03-06T04:56:58.719Z,2.76
2023-03-06T04:59:25.033Z,2.69
2023-03-06T05:01:51.585Z,2.70
2023-03-06T05:04:17.909Z,2.75
2023-03-06T05:06:44.316Z,2.70
2023-03-06T05:09:10.629Z,2.70
2023-03-06T05:11:36.956Z,2.68
2023-03-06T05:14:03.362Z,2.71
2023-03-06T05:16:29.721Z,2.72
2023-03-06T05:18:56.156Z,2.71
2023-03-06T05:21:22.515Z,2.83
2023-03-06T05:23:48.924Z,2.75
2023-03-06T05:26:15.661Z,2.91
2023-03-06T05:28:42.011Z,2.74
2023-03-06T05:31:08.495Z,2.82
2023-03-06T05:33:36.134Z,2.73
2023-03-06T05:36:03.655Z,2.64
2023-03-06T05:38:30.040Z,2.64
2023-03-06T05:40:56.350Z,2.64
2023-03-06T05:43:22.811Z,2.58
2023-03-06T05:45:50.427Z,2.55
2023-03-06T05:48:16.834Z,2.69
2023-03-06T05:50:43.140Z,2.74
2023-03-06T05:53:09.474Z,2.71
2023-03-06T05:55:35.801Z,2.67
2023-03-06T05:58:02.168Z,2.65
2023-03-06T06:00:28.547Z,2.67
2023-03-06T06:02:54.933Z,2.63
2023-03-06T06:05:21.213Z,2.64
2023-03-06T06:07:47.543Z,2.60
2023-03-06T06:10:14.027Z,2.57
2023-03-06T06:12:40.329Z,2.60
2023-03-06T06:15:07.364Z,2.57
2023-03-06T06:17:33.693Z,2.63
2023-03-06T06:20:00.195Z,2.60
2023-03-06T06:22:26.495Z,2.57
2023-03-06T06:24:52.941Z,2.58
2023-03-06T06:27:19.306Z,2.56
2023-03-06T06:29:45.644Z,2.59
2023-03-06T06:32:11.992Z,2.53
2023-03-06T06:34:38.373Z,2.51
2023-03-06T06:37:05.304Z,2.54
2023-03-06T06:39:31.682Z,2.55
2023-03-06T06:42:20.054Z,2.62
2023-03-06T06:44:44.381Z,2.61
2023-03-06T06:47:26.389Z,2.75
2023-03-06T06:49:54.681Z,2.63
2023-03-06T06:52:22.011Z,2.62
2023-03-06T06:54:48.462Z,2.65
2023-03-06T06:57:15.678Z,2.61
2023-03-06T06:59:42.309Z,2.68
2023-03-06T07:02:11.968Z,2.73
2023-03-06T07:04:42.458Z,2.85
2023-03-06T07:07:15.590Z,2.80
2023-03-06T07:09:42.213Z,2.81
2023-03-06T07:12:08.517Z,2.86
2023-03-06T07:14:36.080Z,2.89
2023-03-06T07:17:02.479Z,2.87
2023-03-06T07:19:28.844Z,2.87
2023-03-06T07:21:55.329Z,3.05
2023-03-06T07:24:21.694Z,2.90
2023-03-06T07:26:48.321Z,2.87
2023-03-06T07:29:15.027Z,2.93
2023-03-06T07:31:41.342Z,2.94
2023-03-06T07:34:07.714Z,2.96
2023-03-06T07:36:34.793Z,3.11
2023-03-06T07:39:01.175Z,3.11
2023-03-06T07:41:27.605Z,3.08
2023-03-06T07:43:53.943Z,3.07
2023-03-06T07:46:20.365Z,3.13
2023-03-06T07:48:46.765Z,3.12
2023-03-06T07:51:18.976Z,3.19
2023-03-06T07:53:45.599Z,3.29
2023-03-06T07:56:12.575Z,3.26
2023-03-06T07:58:41.798Z,3.33
2023-03-06T08:01:16.704Z,3.35
2023-03-06T08:03:43.362Z,3.39
2023-03-06T08:09:08.200Z,3.53
2023-03-06T08:11:34.578Z,3.52
2023-03-06T08:14:00.993Z,3.61
2023-03-06T08:16:29.790Z,3.68
2023-03-06T08:18:57.580Z,3.75
2023-03-06T08:21:26.733Z,3.79
2023-03-06T08:23:53.841Z,3.81
2023-03-06T08:26:29.232Z,3.77
2023-03-06T08:28:57.600Z,3.94
2023-03-06T08:31:44.675Z,3.90
2023-03-06T08:34:14.047Z,4.07
2023-03-06T08:36:41.072Z,4.20
2023-03-06T08:39:08.400Z,4.41
2023-03-06T08:41:36.050Z,4.60
2023-03-06T08:44:03.250Z,4.68
2023-03-06T08:46:30.822Z,4.74
2023-03-06T08:48:57.432Z,4.79
2023-03-06T08:51:24.832Z,4.74
2023-03-06T08:53:52.064Z,4.73
2023-03-06T08:56:25.057Z,4.80
2023-03-06T08:58:52.428Z,4.89
2023-03-06T09:01:21.711Z,4.92
2023-03-06T09:03:48.508Z,4.92
2023-03-06T09:06:15.478Z,4.95
2023-03-06T09:08:43.888Z,4.95
2023-03-06T09:11:11.945Z,4.96
2023-03-06T09:13:38.759Z,5.14
2023-03-06T09:16:05.413Z,4.95
2023-03-06T09:18:31.850Z,5.03
2023-03-06T09:20:58.205Z,5.06
2023-03-06T09:23:24.564Z,5.09
2023-03-06T09:25:55.416Z,5.05
2023-03-06T09:28:22.375Z,4.99
2023-03-06T09:30:48.753Z,5.03
2023-03-06T09:33:15.563Z,4.98
2023-03-06T09:35:49.212Z,5.02
2023-03-06T09:38:15.625Z,5.04
2023-03-06T09:40:44.940Z,5.16
2023-03-06T09:43:20.198Z,5.13
2023-03-06T09:45:46.727Z,5.25
2023-03-06T09:48:15.466Z,5.49
2023-03-06T09:50:50.533Z,5.55
2023-03-06T09:53:41.225Z,5.51
2023-03-06T09:56:19.150Z,5.50
2023-03-06T09:58:52.113Z,5.49
2023-03-06T10:01:35.601Z,5.40
2023-03-06T10:04:20.476Z,5.52
2023-03-06T10:06:49.474Z,5.61
2023-03-06T10:09:24.909Z,5.57
2023-03-06T10:11:56.862Z,5.64
2023-03-06T10:14:37.675Z,5.70
2023-03-06T10:17:05.439Z,5.62
2023-03-06T10:19:35.007Z,5.74
2023-03-06T10:22:14.486Z,5.58
2023-03-06T10:25:13.369Z,5.65
2023-03-06T10:27:50.180Z,5.72
2023-03-06T10:30:28.946Z,5.81
2023-03-06T10:33:08.013Z,5.87
2023-03-06T10:35:44.235Z,5.82
2023-03-06T10:38:23.295Z,5.95
2023-03-06T10:41:06.007Z,5.97
2023-03-06T10:43:36.127Z,5.81
2023-03-06T10:46:02.858Z,5.68
2023-03-06T10:48:30.864Z,5.72
2023-03-06T10:51:19.499Z,5.76
2023-03-06T10:53:56.067Z,6.48
2023-03-06T10:56:40.961Z,7.20
2023-03-06T10:59:14.699Z,7.04
2023-03-06T11:01:49.385Z,6.76
2023-03-06T11:04:21.119Z,6.86
2023-03-06T11:06:48.169Z,6.45
2023-03-06T11:09:25.315Z,6.20
2023-03-06T11:11:52.089Z,6.47
2023-03-06T11:14:22.957Z,6.34
2023-03-06T11:16:54.294Z,6.42
2023-03-06T11:19:26.487Z,6.47
2023-03-06T11:22:02.724Z,6.52
2023-03-06T11:24:37.874Z,6.64
2023-03-06T11:27:34.379Z,6.59
2023-03-06T11:30:15.029Z,6.49
2023-03-06T11:32:53.965Z,6.52
2023-03-06T11:35:24.412Z,6.70
2023-03-06T11:38:00.135Z,6.91
2023-03-06T11:40:42.644Z,7.00
2023-03-06T11:43:50.841Z,6.79
2023-03-06T11:46:24.644Z,6.88
2023-03-06T11:49:22.554Z,7.25
2023-03-06T11:51:54.675Z,7.28
2023-03-06T11:54:21.221Z,7.25
2023-03-06T11:56:58.324Z,6.95
2023-03-06T11:59:51.007Z,6.87
2023-03-06T12:02:55.890Z,6.98
2023-03-06T12:05:31.454Z,7.05
2023-03-06T12:08:22.757Z,6.78
2023-03-06T12:10:54.227Z,6.66
2023-03-06T12:13:41.130Z,6.60
2023-03-06T12:16:30.059Z,7.00
2023-03-06T12:19:12.426Z,7.05
2023-03-06T12:22:03.861Z,7.13
2023-03-06T12:24:53.802Z,7.49
2023-03-06T12:27:31.487Z,7.96
2023-03-06T12:30:10.682Z,8.05
2023-03-06T12:32:56.294Z,7.87
2023-03-06T12:35:43.809Z,7.51
2023-03-06T12:38:36.298Z,7.63
2023-03-06T12:41:26.884Z,7.85
2023-03-06T12:44:15.248Z,7.79
2023-03-06T12:46:46.374Z,8.06
2023-03-06T12:49:31.372Z,8.22
2023-03-06T12:51:59.974Z,8.20
2023-03-06T12:54:30.493Z,8.14
2023-03-06T12:56:59.175Z,8.16
2023-03-06T12:59:37.903Z,8.12
2023-03-06T13:02:13.892Z,7.99
2023-03-06T13:04:47.957Z,7.86
2023-03-06T13:07:29.606Z,7.85
2023-03-06T13:10:02.061Z,7.89
2023-03-06T13:12:49.808Z,7.66
2023-03-06T13:15:32.488Z,7.58
2023-03-06T13:17:59.162Z,7.67
2023-03-06T13:20:35.264Z,7.70
2023-03-06T13:23:29.499Z,7.68
2023-03-06T13:26:10.555Z,7.58
2023-03-06T13:28:51.024Z,7.54
2023-03-06T13:31:48.343Z,7.39
2023-03-06T13:34:38.720Z,7.22
2023-03-06T13:37:13.903Z,7.33
2023-03-06T13:40:09.817Z,7.25
2023-03-06T13:42:56.408Z,7.37
2023-03-06T13:45:27.112Z,7.42
2023-03-06T13:48:24.606Z,7.15
2023-03-06T13:50:44.784Z,7.11
2023-03-06T13:53:37.432Z,7.16
2023-03-06T13:56:29.961Z,7.01
2023-03-06T13:59:15.517Z,7.11
2023-03-06T14:01:47.900Z,7.26
2023-03-06T14:04:30.561Z,7.03
2023-03-06T14:07:23.753Z,6.93
2023-03-06T14:09:59.207Z,6.90
2023-03-06T14:12:26.705Z,6.68
2023-03-06T14:14:57.736Z,6.59
2023-03-06T14:17:29.090Z,6.50
2023-03-06T14:20:00.676Z,6.60
2023-03-06T14:22:26.969Z,6.48
2023-03-06T14:25:00.936Z,6.40
2023-03-06T14:27:49.188Z,6.32
2023-03-06T14:30:23.127Z,6.36
2023-03-06T14:32:52.506Z,6.31
2023-03-06T14:35:30.658Z,6.29
2023-03-06T14:38:00.954Z,6.28
2023-03-06T14:40:42.542Z,6.24
2023-03-06T14:43:23.258Z,6.15
2023-03-06T14:46:01.616Z,6.18
2023-03-06T14:48:40.038Z,6.21
2023-03-06T14:51:14.309Z,6.19
2023-03-06T14:53:40.876Z,6.10
2023-03-06T14:56:07.637Z,6.04
2023-03-06T14:58:48.249Z,6.05
2023-03-06T15:01:15.536Z,6.07
2023-03-06T15:03:54.916Z,5.97
2023-03-06T15:06:25.163Z,5.93
2023-03-06T15:09:24.335Z,5.91
2023-03-06T15:12:02.900Z,5.88
2023-03-06T15:14:40.896Z,5.92
2023-03-06T15:17:19.363Z,5.88
2023-03-06T15:19:47.677Z,5.86
2023-03-06T15:22:37.698Z,5.88
2023-03-06T15:25:16.017Z,5.90
2023-03-06T15:27:49.343Z,5.88
2023-03-06T15:30:28.029Z,5.86
2023-03-06T15:33:18.805Z,5.96
2023-03-06T15:36:19.524Z,5.89
2023-03-06T15:38:47.180Z,5.83
2023-03-06T15:41:29.426Z,5.85
2023-03-06T15:43:58.027Z,5.74
2023-03-06T15:46:24.404Z,5.75
2023-03-06T15:49:00.219Z,5.67
2023-03-06T15:51:27.439Z,5.53
2023-03-06T15:53:59.794Z,5.45
2023-03-06T15:56:35.035Z,5.35
2023-03-06T15:59:02.127Z,5.29
2023-03-06T16:01:28.695Z,5.14
2023-03-06T16:03:55.082Z,5.09
2023-03-06T16:06:27.088Z,5.11
2023-03-06T16:08:53.525Z,4.98
2023-03-06T16:11:38.483Z,4.96
2023-03-06T16:14:05.132Z,4.99
2023-03-06T16:16:37.532Z,4.94
2023-03-06T16:19:09.466Z,4.97
2023-03-06T16:21:38.280Z,5.02
2023-03-06T16:24:04.743Z,4.99
2023-03-06T16:26:34.027Z,4.96
2023-03-06T16:29:00.878Z,4.91
2023-03-06T16:31:27.669Z,4.94
2023-03-06T16:33:54.021Z,4.86
2023-03-06T16:36:23.430Z,4.96
2023-03-06T16:38:50.671Z,4.93
2023-03-06T16:41:18.319Z,5.05
2023-03-06T16:43:44.681Z,5.07
2023-03-06T16:46:16.502Z,5.08
2023-03-06T16:48:43.310Z,5.09
2023-03-06T16:51:14.693Z,5.12
2023-03-06T16:53:41.071Z,5.01
2023-03-06T16:56:13.484Z,4.99
2023-03-06T16:58:40.327Z,4.94
2023-03-06T17:01:07.250Z,4.94
2023-03-06T17:03:34.405Z,4.92
2023-03-06T17:06:01.115Z,4.85
2023-03-06T17:08:27.604Z,4.69
2023-03-06T17:10:53.996Z,4.56
2023-03-06T17:13:20.399Z,4.46
2023-03-06T17:15:58.819Z,4.41
2023-03-06T17:18:27.184Z,4.40
2023-03-06T17:20:54.314Z,4.35
2023-03-06T17:23:25.906Z,4.25
2023-03-06T17:26:18.003Z,4.09
2023-03-06T17:28:45.604Z,4.02
2023-03-06T17:31:18.085Z,3.94
2023-03-06T17:33:45.313Z,3.97
2023-03-06T17:36:14.270Z,3.83
2023-03-06T17:38:41.648Z,3.83
2023-03-06T17:41:09.462Z,3.81
2023-03-06T17:43:37.254Z,3.70
2023-03-06T17:46:12.178Z,3.65
2023-03-06T17:48:39.464Z,3.64
2023-03-06T17:51:06.588Z,3.64
2023-03-06T17:53:33.160Z,3.58
2023-03-06T17:55:59.615Z,3.54
2023-03-06T17:58:27.037Z,3.53
2023-03-06T18:00:53.794Z,3.51
2023-03-06T18:03:20.787Z,3.53
2023-03-06T18:05:47.320Z,3.52
2023-03-06T18:08:13.929Z,3.52
2023-03-06T18:10:41.556Z,3.56
2023-03-06T18:13:10.408Z,3.55
2023-03-06T18:15:40.678Z,3.64
2023-03-06T18:18:08.025Z,3.53
2023-03-06T18:20:34.885Z,3.50
2023-03-06T18:23:03.465Z,3.55
2023-03-06T18:25:32.579Z,3.55
2023-03-06T18:27:59.234Z,3.58
2023-03-06T18:30:26.394Z,3.46
2023-03-06T18:32:53.222Z,3.48
2023-03-06T18:35:20.016Z,3.37
2023-03-06T18:37:46.482Z,3.37
2023-03-06T18:40:13.350Z,3.35
2023-03-06T18:42:39.686Z,3.32
2023-03-06T18:45:06.930Z,3.25
2023-03-06T18:47:33.617Z,3.33
2023-03-06T18:49:59.904Z,3.18
2023-03-06T18:52:26.195Z,3.15
2023-03-06T18:54:53.377Z,3.09
2023-03-06T18:57:19.709Z,3.07
2023-03-06T18:59:46.089Z,3.02
2023-03-06T19:02:12.882Z,2.95
2023-03-06T19:04:39.623Z,2.96
2023-03-06T19:07:06.359Z,2.80
2023-03-06T19:09:32.774Z,2.82
2023-03-06T19:11:59.790Z,2.89
2023-03-06T19:14:28.223Z,2.91
2023-03-06T19:16:55.086Z,2.90
2023-03-06T19:19:26.077Z,2.81
2023-03-06T19:21:53.393Z,2.80
2023-03-06T19:24:19.883Z,2.83
2023-03-06T19:26:46.279Z,2.74
2023-03-06T19:29:12.696Z,2.69
2023-03-06T19:31:39.446Z,2.72
2023-03-06T19:34:05.833Z,2.71
2023-03-06T19:36:34.086Z,2.65
2023-03-06T19:39:03.127Z,2.74
2023-03-06T19:41:29.966Z,2.66
2023-03-06T19:43:58.805Z,2.60
2023-03-06T19:46:26.276Z,2.50
2023-03-06T19:49:11.585Z,2.55
2023-03-06T19:51:38.182Z,2.57
2023-03-06T19:54:04.602Z,2.54
2023-03-06T19:56:31.829Z,2.38
2023-03-06T19:58:58.239Z,2.38
2023-03-06T20:01:27.089Z,2.41
2023-03-06T20:03:58.712Z,2.29
2023-03-06T20:06:28.468Z,2.28
2023-03-06T20:08:55.453Z,2.19
2023-03-06T20:11:24.045Z,2.16
2023-03-06T20:13:50.761Z,2.12
2023-03-06T20:16:17.811Z,2.16
2023-03-06T20:18:45.498Z,2.15
2023-03-06T20:21:14.157Z,2.08
2023-03-06T20:23:40.762Z,2.09
2023-03-06T20:26:09.800Z,2.06
2023-03-06T20:28:39.132Z,1.97
2023-03-06T20:31:11.346Z,2.00
2023-03-06T20:33:37.802Z,1.97
2023-03-06T20:36:04.588Z,1.97
2023-03-06T20:38:31.014Z,2.04
2023-03-06T20:40:58.359Z,2.05
2023-03-06T20:43:24.708Z,1.94
2023-03-06T20:45:59.009Z,1.93
2023-03-06T20:48:25.425Z,1.92
2023-03-06T20:51:02.855Z,1.94
2023-03-06T20:53:29.657Z,1.88
2023-03-06T20:55:56.450Z,1.87
2023-03-06T20:58:25.770Z,1.88
2023-03-06T21:00:52.542Z,1.87
2023-03-06T21:03:18.870Z,1.82
2023-03-06T21:05:48.663Z,1.86
2023-03-06T21:08:16.072Z,1.87
2023-03-06T21:10:44.796Z,1.87
2023-03-06T21:13:11.458Z,1.79
2023-03-06T21:15:39.366Z,1.75
2023-03-06T21:18:06.058Z,1.78
2023-03-06T21:20:33.472Z,1.79
2023-03-06T21:23:01.601Z,1.76
2023-03-06T21:25:29.033Z,1.73
2023-03-06T21:27:55.809Z,1.65
2023-03-06T21:30:22.209Z,1.63
2023-03-06T21:32:50.707Z,1.62
2023-03-06T21:35:17.400Z,1.62
2023-03-06T21:37:43.731Z,1.65
2023-03-06T21:40:10.704Z,1.65
2023-03-06T21:42:37.030Z,1.67
2023-03-06T21:45:05.088Z,1.78
2023-03-06T21:47:37.529Z,1.77
2023-03-06T21:50:06.223Z,1.78
2023-03-06T21:52:32.658Z,1.84
2023-03-06T21:54:59.132Z,1.80
2023-03-06T21:57:25.653Z,1.84
2023-03-06T21:59:52.040Z,1.84
2023-03-06T22:02:18.693Z,1.83
2023-03-06T22:04:50.026Z,1.81
2023-03-06T22:07:16.916Z,1.71
2023-03-06T22:09:43.210Z,1.79
2023-03-06T22:12:09.730Z,1.72
2023-03-06T22:14:36.109Z,1.65
2023-03-06T22:17:02.854Z,1.65
2023-03-06T22:19:29.729Z,1.63
2023-03-06T22:21:56.171Z,1.62
2023-03-06T22:24:22.613Z,1.65
2023-03-06T22:26:48.918Z,1.64
2023-03-06T22:29:15.327Z,1.72
2023-03-06T22:31:41.709Z,1.65
2023-03-06T22:34:08.096Z,1.73
2023-03-06T22:36:34.525Z,1.69
2023-03-06T22:39:02.914Z,1.78
2023-03-06T22:41:29.380Z,1.85
2023-03-06T22:43:57.162Z,1.92
2023-03-06T22:46:23.694Z,1.95
2023-03-06T22:48:50.066Z,2.07
2023-03-06T22:51:19.210Z,2.13
2023-03-06T22:53:46.908Z,2.12
2023-03-06T22:56:15.537Z,2.13
2023-03-06T22:58:44.524Z,2.15
2023-03-06T23:01:13.486Z,2.18
2023-03-06T23:03:41.818Z,2.18
2023-03-06T23:06:10.589Z,2.17
2023-03-06T23:08:37.424Z,2.18
2023-03-06T23:11:12.282Z,2.20
2023-03-06T23:13:39.306Z,2.19
2023-03-06T23:16:07.516Z,2.26
2023-03-06T23:18:36.939Z,2.22
2023-03-06T23:21:15.082Z,2.30
2023-03-06T23:23:44.072Z,2.30
2023-03-06T23:26:13.301Z,2.25
2023-03-06T23:28:40.764Z,2.24
2023-03-06T23:31:17.633Z,2.32
2023-03-06T23:33:44.397Z,2.31
2023-03-06T23:36:13.468Z,2.25
2023-03-06T23:38:40.779Z,2.34
2023-03-06T23:41:10.390Z,2.32
2023-03-06T23:43:37.079Z,2.32
2023-03-06T23:46:04.863Z,2.38
2023-03-06T23:48:31.429Z,2.37
2023-03-06T23:50:58.101Z,2.38
2023-03-06T23:53:24.620Z,2.41
2023-03-06T23:55:51.209Z,2.42
2023-03-06T23:58:18.873Z,2.44
